createdAt,value
2018-12-09T00:00:20.624Z,0.73
2018-12-09T00:02:48.749Z,1.00
2018-12-09T00:05:16.830Z,0.77
2018-12-09T00:07:44.878Z,0.50
2018-12-09T00:10:13.394Z,0.70
2018-12-09T00:12:41.355Z,1.23
2018-12-09T00:15:09.777Z,0.83
2018-12-09T00:17:37.720Z,0.67
2018-12-09T00:20:05.587Z,0.40
2018-12-09T00:22:33.477Z,0.60
2018-12-09T00:25:01.306Z,1.00
2018-12-09T00:27:29.113Z,3.33
2018-12-09T00:29:56.935Z,0.97
2018-12-09T00:32:24.931Z,1.07
2018-12-09T00:34:52.774Z,0.70
2018-12-09T00:37:20.635Z,2.10
2018-12-09T00:39:48.535Z,0.90
2018-12-09T00:42:16.344Z,0.77
2018-12-09T00:44:44.166Z,0.80
2018-12-09T00:47:12.021Z,0.80
2018-12-09T00:49:42.320Z,2.27
2018-12-09T00:52:10.246Z,1.23
2018-12-09T00:54:38.404Z,0.60
2018-12-09T00:57:06.339Z,0.90
2018-12-09T00:59:34.140Z,0.50
2018-12-09T01:02:06.455Z,0.80
2018-12-09T01:04:34.315Z,1.43
2018-12-09T01:07:02.139Z,1.00
2018-12-09T01:09:29.895Z,0.77
2018-12-09T01:11:57.991Z,1.10
2018-12-09T01:14:25.849Z,1.10
2018-12-09T01:16:54.423Z,0.70
2018-12-09T01:19:22.255Z,0.60
2018-12-09T01:21:50.355Z,0.77
2018-12-09T01:24:18.174Z,0.80
2018-12-09T01:26:46.040Z,0.87
2018-12-09T01:29:14.068Z,0.60
2018-12-09T01:31:42.115Z,0.80
2018-12-09T01:34:11.062Z,1.10
2018-12-09T01:36:38.927Z,0.60
2018-12-09T01:39:07.199Z,1.20
2018-12-09T01:41:35.349Z,0.67
2018-12-09T01:44:03.125Z,0.80
2018-12-09T01:46:31.526Z,0.80
2018-12-09T01:48:59.426Z,0.93
2018-12-09T01:51:27.300Z,0.80
2018-12-09T01:54:11.470Z,0.80
2018-12-09T01:56:39.699Z,1.07
2018-12-09T01:59:07.578Z,0.70
2018-12-09T02:01:35.374Z,0.57
2018-12-09T02:04:03.859Z,1.30
2018-12-09T02:06:32.112Z,0.70
2018-12-09T02:08:59.971Z,0.83
2018-12-09T02:11:27.935Z,0.73
2018-12-09T02:13:55.735Z,1.27
2018-12-09T02:16:23.563Z,1.07
2018-12-09T02:19:02.195Z,0.70
2018-12-09T02:21:30.031Z,0.83
2018-12-09T02:23:57.845Z,1.47
2018-12-09T02:26:25.725Z,0.80
2018-12-09T02:28:53.607Z,1.10
2018-12-09T02:31:21.460Z,0.70
2018-12-09T02:33:49.380Z,0.40
2018-12-09T02:36:17.356Z,0.50
2018-12-09T02:38:45.534Z,0.60
2018-12-09T02:41:13.557Z,0.50
2018-12-09T02:43:41.441Z,0.70
2018-12-09T02:46:09.283Z,0.63
2018-12-09T02:48:37.279Z,0.60
2018-12-09T02:51:05.505Z,0.50
2018-12-09T02:53:33.364Z,0.60
2018-12-09T02:56:01.195Z,0.70
2018-12-09T02:58:29.027Z,1.20
2018-12-09T03:00:56.849Z,1.40
2018-12-09T03:03:24.753Z,1.37
2018-12-09T03:05:52.584Z,1.23
2018-12-09T03:08:20.712Z,1.33
2018-12-09T03:10:49.397Z,0.80
2018-12-09T03:13:17.823Z,1.53
2018-12-09T03:15:45.709Z,0.57
2018-12-09T03:18:13.728Z,1.47
2018-12-09T03:20:41.641Z,1.27
2018-12-09T03:23:09.456Z,0.90
2018-12-09T03:25:37.531Z,0.70
2018-12-09T03:28:05.446Z,1.40
2018-12-09T03:30:33.263Z,0.83
2018-12-09T03:33:01.057Z,1.00
2018-12-09T03:35:28.873Z,0.80
2018-12-09T03:37:56.737Z,2.47
2018-12-09T03:40:24.563Z,0.80
2018-12-09T03:42:52.675Z,0.87
2018-12-09T03:45:20.568Z,0.80
2018-12-09T03:47:48.507Z,0.87
2018-12-09T03:50:16.355Z,0.70
2018-12-09T03:52:44.198Z,0.70
2018-12-09T03:55:13.051Z,0.80
2018-12-09T03:57:40.942Z,0.70
2018-12-09T04:00:09.020Z,1.17
2018-12-09T04:02:36.924Z,1.20
2018-12-09T04:05:05.198Z,2.57
2018-12-09T04:07:33.019Z,2.13
2018-12-09T04:10:01.184Z,7.33
2018-12-09T04:12:29.212Z,5.03
2018-12-09T04:14:57.043Z,5.93
2018-12-09T04:17:24.926Z,5.80
2018-12-09T04:19:52.887Z,5.97
2018-12-09T04:22:20.743Z,5.97
2018-12-09T04:24:48.588Z,4.53
2018-12-09T04:27:16.388Z,3.87
2018-12-09T04:29:44.230Z,3.67
2018-12-09T04:32:12.052Z,6.17
2018-12-09T04:34:40.308Z,8.63
2018-12-09T04:37:08.454Z,7.03
2018-12-09T04:39:36.325Z,5.50
2018-12-09T04:42:04.161Z,5.67
2018-12-09T04:44:32.079Z,8.00
2018-12-09T04:46:59.941Z,8.17
2018-12-09T04:49:28.136Z,6.30
2018-12-09T04:51:57.195Z,5.80
2018-12-09T04:54:26.324Z,5.93
2018-12-09T04:56:54.312Z,5.33
2018-12-09T04:59:23.568Z,8.80
2018-12-09T05:01:51.557Z,5.03
2018-12-09T05:04:19.675Z,7.13
2018-12-09T05:06:47.537Z,6.50
2018-12-09T05:09:15.453Z,6.80
2018-12-09T05:11:43.386Z,6.47
2018-12-09T05:14:11.236Z,5.80
2018-12-09T05:16:39.183Z,4.87
2018-12-09T05:19:07.085Z,7.00
2018-12-09T05:21:36.223Z,6.73
2018-12-09T05:24:04.050Z,4.17
2018-12-09T05:26:31.963Z,3.43
2018-12-09T05:28:59.796Z,4.03
2018-12-09T05:31:27.646Z,4.57
2018-12-09T05:33:55.501Z,5.33
2018-12-09T05:36:23.430Z,4.10
2018-12-09T05:38:51.204Z,2.50
2018-12-09T05:41:19.113Z,2.33
2018-12-09T05:43:46.964Z,3.67
2018-12-09T05:46:14.794Z,3.60
2018-12-09T05:48:42.678Z,4.80
2018-12-09T05:51:10.495Z,3.37
2018-12-09T05:53:38.487Z,3.83
2018-12-09T05:56:06.369Z,4.07
2018-12-09T05:58:34.259Z,3.77
2018-12-09T06:01:02.135Z,5.17
2018-12-09T06:03:30.030Z,3.60
2018-12-09T06:05:57.849Z,1.60
2018-12-09T06:08:25.703Z,4.07
2018-12-09T06:10:53.693Z,3.53
2018-12-09T06:13:21.561Z,2.33
2018-12-09T06:15:49.412Z,4.33
2018-12-09T06:18:17.253Z,2.80
2018-12-09T06:20:45.057Z,4.53
2018-12-09T06:23:13.117Z,1.83
2018-12-09T06:25:40.980Z,2.07
2018-12-09T06:28:08.836Z,2.10
2018-12-09T06:30:36.707Z,1.67
2018-12-09T06:33:04.515Z,1.43
2018-12-09T06:35:32.377Z,2.10
2018-12-09T06:38:00.223Z,3.93
2018-12-09T06:40:28.091Z,2.47
2018-12-09T06:42:55.857Z,2.63
2018-12-09T06:45:23.770Z,2.03
2018-12-09T06:47:51.586Z,1.10
2018-12-09T06:50:19.394Z,3.83
2018-12-09T06:52:47.641Z,1.97
2018-12-09T06:55:15.390Z,3.27
2018-12-09T06:57:43.316Z,3.23
2018-12-09T07:00:11.243Z,2.73
2018-12-09T07:02:39.196Z,2.60
2018-12-09T07:05:07.947Z,1.70
2018-12-09T07:07:35.884Z,2.47
2018-12-09T07:10:05.478Z,3.73
2018-12-09T07:12:33.312Z,4.23
2018-12-09T07:15:01.239Z,2.47
2018-12-09T07:17:29.590Z,2.60
2018-12-09T07:19:57.681Z,1.10
2018-12-09T07:22:25.675Z,1.33
2018-12-09T07:24:53.696Z,1.80
2018-12-09T07:27:21.574Z,2.30
2018-12-09T07:29:49.739Z,2.03
2018-12-09T07:32:17.664Z,2.20
2018-12-09T07:34:45.511Z,2.50
2018-12-09T07:37:13.645Z,1.87
2018-12-09T07:39:41.496Z,1.10
2018-12-09T07:42:09.741Z,1.67
2018-12-09T07:44:37.725Z,1.50
2018-12-09T07:47:06.245Z,2.00
2018-12-09T07:49:34.154Z,2.13
2018-12-09T07:52:02.048Z,3.50
2018-12-09T07:54:30.469Z,1.57
2018-12-09T07:56:58.429Z,1.23
2018-12-09T07:59:26.432Z,1.80
2018-12-09T08:01:54.545Z,1.03
2018-12-09T08:04:22.400Z,0.97
2018-12-09T08:06:50.442Z,1.00
2018-12-09T08:09:18.448Z,1.40
2018-12-09T08:11:46.377Z,1.63
2018-12-09T08:14:14.320Z,1.30
2018-12-09T08:16:42.277Z,1.33
2018-12-09T08:19:10.136Z,3.10
2018-12-09T08:21:38.696Z,2.80
2018-12-09T08:24:06.610Z,2.03
2018-12-09T08:26:34.503Z,3.90
2018-12-09T08:29:02.468Z,7.37
2018-12-09T08:31:30.710Z,4.53
2018-12-09T08:33:59.002Z,4.30
2018-12-09T08:36:27.340Z,5.27
2018-12-09T08:38:55.500Z,5.70
2018-12-09T08:41:23.704Z,6.77
2018-12-09T08:43:51.780Z,5.63
2018-12-09T08:46:19.831Z,5.40
2018-12-09T08:48:47.781Z,7.33
2018-12-09T08:51:15.781Z,6.60
2018-12-09T08:53:43.848Z,3.03
2018-12-09T08:56:11.726Z,7.53
2018-12-09T08:58:40.011Z,7.37
2018-12-09T09:01:07.886Z,7.50
2018-12-09T09:03:35.919Z,6.80
2018-12-09T09:06:04.120Z,3.53
2018-12-09T09:08:32.246Z,2.40
2018-12-09T09:11:00.334Z,4.67
2018-12-09T09:13:28.356Z,3.43
2018-12-09T09:15:56.581Z,3.53
2018-12-09T09:18:24.628Z,2.77
2018-12-09T09:20:52.666Z,4.17
2018-12-09T09:23:20.703Z,5.00
2018-12-09T09:25:48.896Z,4.60
2018-12-09T09:28:16.811Z,2.83
2018-12-09T09:30:44.669Z,6.10
2018-12-09T09:33:12.672Z,5.57
2018-12-09T09:35:40.619Z,5.30
2018-12-09T09:38:08.524Z,4.17
2018-12-09T09:40:36.513Z,5.23
2018-12-09T09:43:04.467Z,6.43
2018-12-09T09:45:32.492Z,6.07
2018-12-09T09:48:00.502Z,4.73
2018-12-09T09:50:28.662Z,5.60
2018-12-09T09:52:57.854Z,5.93
2018-12-09T09:55:26.091Z,5.43
2018-12-09T09:57:54.134Z,7.93
2018-12-09T10:00:22.140Z,4.97
2018-12-09T10:02:50.157Z,4.93
2018-12-09T10:05:18.124Z,4.70
2018-12-09T10:07:46.036Z,4.23
2018-12-09T10:10:14.082Z,4.50
2018-12-09T10:12:42.137Z,5.07
2018-12-09T10:15:10.013Z,4.80
2018-12-09T10:17:38.136Z,7.73
2018-12-09T10:20:06.521Z,6.10
2018-12-09T10:22:34.615Z,8.67
2018-12-09T10:25:03.205Z,4.83
2018-12-09T10:27:31.229Z,5.93
2018-12-09T10:29:59.397Z,5.83
2018-12-09T10:32:27.565Z,10.43
2018-12-09T10:34:55.641Z,8.40
2018-12-09T10:37:23.655Z,5.10
2018-12-09T10:39:52.081Z,7.23
2018-12-09T10:42:20.114Z,4.80
2018-12-09T10:44:48.181Z,7.87
2018-12-09T10:47:16.181Z,6.60
2018-12-09T10:49:44.119Z,3.67
2018-12-09T10:54:49.180Z,4.53
2018-12-09T10:57:17.130Z,6.60
2018-12-09T10:59:45.043Z,5.13
2018-12-09T11:02:18.143Z,5.60
2018-12-09T11:04:46.611Z,8.93
2018-12-09T11:07:14.664Z,4.93
2018-12-09T11:09:42.545Z,5.83
2018-12-09T11:12:10.843Z,4.43
2018-12-09T11:14:38.976Z,3.63
2018-12-09T11:17:07.145Z,4.03
2018-12-09T11:19:35.163Z,5.47
2018-12-09T11:22:08.543Z,7.03
2018-12-09T11:24:36.697Z,4.60
2018-12-09T11:27:04.695Z,7.00
2018-12-09T11:29:32.636Z,5.40
2018-12-09T11:32:00.705Z,5.20
2018-12-09T11:34:28.736Z,7.73
2018-12-09T11:36:57.083Z,6.00
2018-12-09T11:39:25.062Z,5.00
2018-12-09T11:41:52.968Z,6.33
2018-12-09T11:44:20.887Z,6.13
2018-12-09T11:46:48.845Z,7.30
2018-12-09T11:49:16.850Z,5.07
2018-12-09T11:51:44.806Z,7.23
2018-12-09T11:54:12.758Z,6.67
2018-12-09T11:56:40.804Z,7.97
2018-12-09T11:59:08.831Z,6.17
2018-12-09T12:01:36.830Z,7.53
2018-12-09T12:04:04.792Z,5.50
2018-12-09T12:06:32.688Z,6.60
2018-12-09T12:09:00.686Z,5.57
2018-12-09T12:11:28.776Z,4.80
2018-12-09T12:13:56.835Z,5.20
2018-12-09T12:16:24.876Z,3.50
2018-12-09T12:18:52.858Z,6.43
2018-12-09T12:21:20.774Z,6.73
2018-12-09T12:23:48.858Z,4.23
2018-12-09T12:26:17.021Z,5.27
2018-12-09T12:28:45.202Z,6.33
2018-12-09T12:31:13.154Z,6.80
2018-12-09T12:33:41.107Z,2.63
2018-12-09T12:36:09.246Z,3.30
2018-12-09T12:38:37.255Z,2.83
2018-12-09T12:41:05.176Z,3.87
2018-12-09T12:43:33.430Z,5.40
2018-12-09T12:46:01.486Z,4.33
2018-12-09T12:48:33.529Z,7.20
2018-12-09T12:51:01.653Z,7.87
2018-12-09T12:53:29.731Z,4.57
2018-12-09T12:55:57.759Z,5.43
2018-12-09T12:58:26.044Z,4.57
2018-12-09T13:00:54.026Z,6.70
2018-12-09T13:03:21.991Z,5.83
2018-12-09T13:05:50.165Z,3.23
2018-12-09T13:08:18.133Z,4.47
2018-12-09T13:10:46.056Z,3.23
2018-12-09T13:13:13.967Z,3.30
2018-12-09T13:15:41.948Z,3.20
2018-12-09T13:18:09.863Z,2.80
2018-12-09T13:20:37.751Z,3.00
2018-12-09T13:23:05.741Z,2.40
2018-12-09T13:25:33.784Z,2.20
2018-12-09T13:28:01.810Z,2.53
2018-12-09T13:30:29.751Z,2.73
2018-12-09T13:32:57.819Z,2.60
2018-12-09T13:35:25.885Z,2.60
2018-12-09T13:37:54.121Z,1.37
2018-12-09T13:40:22.038Z,7.47
2018-12-09T13:42:49.910Z,1.70
2018-12-09T13:45:18.127Z,4.23
2018-12-09T13:47:46.111Z,2.17
2018-12-09T13:50:16.276Z,2.23
2018-12-09T13:52:44.296Z,1.30
2018-12-09T13:55:12.281Z,6.27
2018-12-09T13:57:40.449Z,2.17
2018-12-09T14:00:11.834Z,2.47
2018-12-09T14:02:39.851Z,2.03
2018-12-09T14:05:07.815Z,1.40
2018-12-09T14:07:35.776Z,1.63
2018-12-09T14:10:03.781Z,1.27
2018-12-09T14:12:31.759Z,1.30
2018-12-09T14:14:59.868Z,1.60
2018-12-09T14:17:27.907Z,1.53
2018-12-09T14:19:55.889Z,2.23
2018-12-09T14:22:23.836Z,3.07
2018-12-09T14:24:51.957Z,2.23
2018-12-09T14:27:20.035Z,1.30
2018-12-09T14:29:47.961Z,1.93
2018-12-09T14:32:16.305Z,1.20
2018-12-09T14:34:44.241Z,3.50
2018-12-09T14:37:12.245Z,2.60
2018-12-09T14:39:40.290Z,1.70
2018-12-09T14:42:08.231Z,3.20
2018-12-09T14:44:36.602Z,2.43
2018-12-09T14:47:04.450Z,1.33
2018-12-09T14:49:32.424Z,2.40
2018-12-09T14:52:00.494Z,4.33
2018-12-09T14:54:28.618Z,2.57
2018-12-09T14:56:56.463Z,1.60
2018-12-09T14:59:24.491Z,1.93
2018-12-09T15:01:52.344Z,1.27
2018-12-09T15:04:20.189Z,1.93
2018-12-09T15:06:48.051Z,3.83
2018-12-09T15:09:16.356Z,2.07
2018-12-09T15:11:44.474Z,1.63
2018-12-09T15:14:12.318Z,3.53
2018-12-09T15:16:40.746Z,1.40
2018-12-09T15:19:08.577Z,3.33
2018-12-09T15:21:36.383Z,2.23
2018-12-09T15:24:04.280Z,1.60
2018-12-09T15:26:32.091Z,2.13
2018-12-09T15:29:00.123Z,2.03
2018-12-09T15:31:27.971Z,1.97
2018-12-09T15:33:55.759Z,1.23
2018-12-09T15:36:23.563Z,2.53
2018-12-09T15:38:51.386Z,2.17
2018-12-09T15:41:19.176Z,2.10
2018-12-09T15:43:46.962Z,2.77
2018-12-09T15:46:15.651Z,1.40
2018-12-09T15:48:43.467Z,1.33
2018-12-09T15:51:11.488Z,1.43
2018-12-09T15:53:39.444Z,1.63
2018-12-09T15:56:07.256Z,1.67
2018-12-09T15:58:35.079Z,1.37
2018-12-09T16:01:02.954Z,2.17
2018-12-09T16:03:30.901Z,2.03
2018-12-09T16:05:58.829Z,1.57
2018-12-09T16:08:26.661Z,2.33
2018-12-09T16:10:54.482Z,1.77
2018-12-09T16:13:22.255Z,1.20
2018-12-09T16:15:50.065Z,1.30
2018-12-09T16:18:17.836Z,4.27
2018-12-09T16:20:45.706Z,2.40
2018-12-09T16:23:14.868Z,2.33
2018-12-09T16:25:42.819Z,1.17
2018-12-09T16:28:11.743Z,1.47
2018-12-09T16:30:39.699Z,1.40
2018-12-09T16:33:07.571Z,1.67
2018-12-09T16:35:35.556Z,1.87
2018-12-09T16:38:03.447Z,2.50
2018-12-09T16:40:31.294Z,1.77
2018-12-09T16:42:59.374Z,1.50
2018-12-09T16:45:27.189Z,1.73
2018-12-09T16:47:54.933Z,4.17
2018-12-09T16:50:22.723Z,1.30
2018-12-09T16:52:50.536Z,1.60
2018-12-09T16:55:18.295Z,2.77
2018-12-09T16:57:46.722Z,1.63
2018-12-09T17:00:14.526Z,1.30
2018-12-09T17:02:42.453Z,1.10
2018-12-09T17:05:10.251Z,2.20
2018-12-09T17:07:42.134Z,1.57
2018-12-09T17:10:08.772Z,1.30
2018-12-09T17:12:36.643Z,1.50
2018-12-09T17:15:04.843Z,1.73
2018-12-09T17:17:32.847Z,1.50
2018-12-09T17:20:06.238Z,1.73
2018-12-09T17:22:30.784Z,2.60
2018-12-09T17:25:00.395Z,2.00
2018-12-09T17:27:28.229Z,1.30
2018-12-09T17:29:56.060Z,2.60
2018-12-09T17:32:23.904Z,1.83
2018-12-09T17:34:51.735Z,1.20
2018-12-09T17:37:19.656Z,2.10
2018-12-09T17:39:47.471Z,2.90
2018-12-09T17:42:15.290Z,1.40
2018-12-09T17:44:43.200Z,2.80
2018-12-09T17:47:11.099Z,1.40
2018-12-09T17:49:38.919Z,1.43
2018-12-09T17:52:06.775Z,2.00
2018-12-09T17:54:35.267Z,1.63
2018-12-09T17:57:03.551Z,1.23
2018-12-09T17:59:31.863Z,1.60
2018-12-09T18:02:00.418Z,2.23
2018-12-09T18:04:29.168Z,2.23
2018-12-09T18:06:57.317Z,1.93
2018-12-09T18:09:26.731Z,2.10
2018-12-09T18:11:55.006Z,1.70
2018-12-09T18:14:22.975Z,2.07
2018-12-09T18:16:51.163Z,1.70
2018-12-09T18:19:19.564Z,2.50
2018-12-09T18:21:47.746Z,2.23
2018-12-09T18:24:15.773Z,1.30
2018-12-09T18:26:44.464Z,1.43
2018-12-09T18:29:12.444Z,1.97
2018-12-09T18:31:40.456Z,1.10
2018-12-09T18:34:09.416Z,0.90
2018-12-09T18:36:37.676Z,1.13
2018-12-09T18:39:05.958Z,1.30
2018-12-09T18:41:34.304Z,1.40
2018-12-09T18:44:02.648Z,1.60
2018-12-09T18:46:31.121Z,2.13
2018-12-09T18:48:59.237Z,1.90
2018-12-09T18:51:27.352Z,1.47
2018-12-09T18:53:55.360Z,1.30
2018-12-09T18:56:23.867Z,1.00
2018-12-09T18:58:51.884Z,1.93
2018-12-09T19:01:19.827Z,1.30
2018-12-09T19:03:48.811Z,1.37
2018-12-09T19:06:16.702Z,2.00
2018-12-09T19:08:44.688Z,1.20
2018-12-09T19:11:12.610Z,1.37
2018-12-09T19:13:40.785Z,1.87
2018-12-09T19:16:08.834Z,1.23
2018-12-09T19:18:37.004Z,1.30
2018-12-09T19:21:04.988Z,1.20
2018-12-09T19:23:33.303Z,2.17
2018-12-09T19:26:02.627Z,1.57
2018-12-09T19:28:32.156Z,1.07
2018-12-09T19:31:00.207Z,1.97
2018-12-09T19:33:28.190Z,1.60
2018-12-09T19:35:56.180Z,1.27
2018-12-09T19:38:24.165Z,1.43
2018-12-09T19:40:54.259Z,2.23
2018-12-09T19:43:22.355Z,1.33
2018-12-09T19:45:50.275Z,1.17
2018-12-09T19:48:18.233Z,1.20
2018-12-09T19:50:46.280Z,0.93
2018-12-09T19:53:14.684Z,1.20
2018-12-09T19:55:42.901Z,1.20
2018-12-09T19:58:10.860Z,1.33
2018-12-09T20:00:39.095Z,1.00
2018-12-09T20:03:07.233Z,1.10
2018-12-09T20:05:36.867Z,1.17
2018-12-09T20:08:04.972Z,0.70
2018-12-09T20:10:33.387Z,0.80
2018-12-09T20:13:01.750Z,0.70
2018-12-09T20:15:30.283Z,1.50
2018-12-09T20:17:59.016Z,1.00
2018-12-09T20:20:28.308Z,1.27
2018-12-09T20:22:56.692Z,1.07
2018-12-09T20:25:25.598Z,1.20
2018-12-09T20:27:53.706Z,1.13
2018-12-09T20:30:21.746Z,1.13
2018-12-09T20:32:49.914Z,1.03
2018-12-09T20:35:18.090Z,1.00
2018-12-09T20:37:46.170Z,0.80
2018-12-09T20:40:14.269Z,1.20
2018-12-09T20:42:48.126Z,1.37
2018-12-09T20:45:12.376Z,1.13
2018-12-09T20:47:40.773Z,1.17
2018-12-09T20:50:08.741Z,1.30
2018-12-09T20:52:36.913Z,1.47
2018-12-09T20:55:05.249Z,1.30
2018-12-09T20:57:33.312Z,1.30
2018-12-09T21:00:01.457Z,1.10
2018-12-09T21:02:29.532Z,1.00
2018-12-09T21:04:57.541Z,1.10
2018-12-09T21:07:26.297Z,1.50
2018-12-09T21:09:54.286Z,1.30
2018-12-09T21:12:22.278Z,1.23
2018-12-09T21:14:50.564Z,1.30
2018-12-09T21:17:19.184Z,1.20
2018-12-09T21:19:47.653Z,1.37
2018-12-09T21:22:15.650Z,1.73
2018-12-09T21:24:44.396Z,1.73
2018-12-09T21:27:13.206Z,1.37
2018-12-09T21:29:44.475Z,0.97
2018-12-09T21:32:13.255Z,1.30
2018-12-09T21:34:41.646Z,1.17
2018-12-09T21:37:10.314Z,1.27
2018-12-09T21:39:39.006Z,1.27
2018-12-09T21:42:07.520Z,2.13
2018-12-09T21:44:35.645Z,1.40
2018-12-09T21:47:04.229Z,1.30
2018-12-09T21:49:32.362Z,1.17
2018-12-09T21:52:00.441Z,1.00
2018-12-09T21:54:28.537Z,2.03
2018-12-09T21:56:56.605Z,1.03
2018-12-09T21:59:24.593Z,0.90
2018-12-09T22:01:52.519Z,1.20
2018-12-09T22:04:20.422Z,1.30
2018-12-09T22:06:48.512Z,1.60
2018-12-09T22:09:16.508Z,1.87
2018-12-09T22:11:45.154Z,1.73
2018-12-09T22:14:13.233Z,2.20
2018-12-09T22:16:45.919Z,1.00
2018-12-09T22:19:14.443Z,0.90
2018-12-09T22:21:42.686Z,1.10
2018-12-09T22:24:11.518Z,1.10
2018-12-09T22:26:39.871Z,1.50
2018-12-09T22:29:08.313Z,1.40
2018-12-09T22:31:37.155Z,1.23
2018-12-09T22:34:05.602Z,1.10
2018-12-09T22:36:38.429Z,2.17
2018-12-09T22:39:08.053Z,1.30
2018-12-09T22:41:37.106Z,1.17
2018-12-09T22:44:05.579Z,1.20
2018-12-09T22:46:34.223Z,1.27
2018-12-09T22:49:03.016Z,2.13
2018-12-09T22:51:31.543Z,1.00
2018-12-09T22:53:59.998Z,1.37
2018-12-09T22:56:29.227Z,1.67
2018-12-09T22:58:58.301Z,1.20
2018-12-09T23:01:27.221Z,1.60
2018-12-09T23:03:55.427Z,1.73
2018-12-09T23:06:23.455Z,1.67
2018-12-09T23:08:51.758Z,1.40
2018-12-09T23:11:20.476Z,1.67
2018-12-09T23:13:49.405Z,1.20
2018-12-09T23:16:18.272Z,2.10
2018-12-09T23:18:47.528Z,1.23
2018-12-09T23:21:16.118Z,1.60
2018-12-09T23:23:45.710Z,1.87
2018-12-09T23:26:14.030Z,1.33
2018-12-09T23:28:42.808Z,1.10
2018-12-09T23:31:11.217Z,1.30
2018-12-09T23:33:40.814Z,1.67
2018-12-09T23:36:08.909Z,1.90
2018-12-09T23:38:36.896Z,1.33
2018-12-09T23:41:04.996Z,2.63
2018-12-09T23:43:32.963Z,1.17
2018-12-09T23:46:01.014Z,2.23
2018-12-09T23:48:29.261Z,1.13
2018-12-09T23:50:57.380Z,1.20
2018-12-09T23:53:25.421Z,1.03
2018-12-09T23:55:53.674Z,2.03
2018-12-09T23:58:21.618Z,1.87
